Time;durP1;ratioP1;P1;durP2;ratioP2;P2;SDS_P1;SDS_P2;PMS_P1;PMS_P2;Temp;Humidity;BMP_temperature;BMP_pressure;BME280_temperature;BME280_humidity;BME280_pressure;Samples;Min_cycle;Max_cycle;Signal;HPM_P1;HPM_P2
2024/01/22 00:01:39;;;;;;;11.70;7.03;;;5.20;99.90;;;;;;5094022;28;20692;-66
2024/01/22 00:04:07;;;;;;;8.32;6.30;;;5.20;99.90;;;;;;5093855;28;20212;-63
2024/01/22 00:06:33;;;;;;;10.30;7.30;;;5.30;99.90;;;;;;5093571;28;20673;-64
2024/01/22 00:09:02;;;;;;;10.75;6.63;;;5.30;99.90;;;;;;5094822;28;20203;-64
2024/01/22 00:11:29;;;;;;;10.45;7.20;;;5.40;99.90;;;;;;5094675;28;20654;-63
2024/01/22 00:13:56;;;;;;;7.75;5.75;;;5.40;99.90;;;;;;5094881;28;20224;-64
2024/01/22 00:16:23;;;;;;;8.23;6.38;;;5.40;99.90;;;;;;5093579;28;20211;-63
2024/01/22 00:18:50;;;;;;;10.18;6.32;;;5.50;99.90;;;;;;5093716;28;20230;-65
2024/01/22 00:21:17;;;;;;;8.82;6.55;;;5.50;99.90;;;;;;5093206;28;20629;-64
2024/01/22 00:23:44;;;;;;;15.70;7.57;;;5.50;99.90;;;;;;5093266;28;20702;-64
2024/01/22 00:26:14;;;;;;;8.10;6.45;;;5.60;99.90;;;;;;5094739;28;20200;-66
2024/01/22 00:28:41;;;;;;;11.98;6.85;;;5.60;99.90;;;;;;5096031;28;20294;-64
2024/01/22 00:31:07;;;;;;;10.18;6.10;;;5.60;99.90;;;;;;5098075;28;20203;-64
2024/01/22 00:33:34;;;;;;;10.95;7.13;;;5.70;99.90;;;;;;5098280;28;20231;-64
2024/01/22 00:36:02;;;;;;;8.65;7.35;;;5.70;99.90;;;;;;5098370;28;20573;-64
2024/01/22 00:38:29;;;;;;;7.22;6.53;;;5.70;99.90;;;;;;5098853;28;20220;-64
2024/01/22 00:40:55;;;;;;;8.70;6.20;;;5.80;99.90;;;;;;5098597;28;20207;-65
2024/01/22 00:43:24;;;;;;;8.18;5.70;;;5.80;99.90;;;;;;5100849;28;20694;-64
2024/01/22 00:45:51;;;;;;;7.88;6.25;;;5.80;99.90;;;;;;5115088;28;20287;-64
2024/01/22 00:48:18;;;;;;;7.40;6.47;;;5.80;99.90;;;;;;5109531;28;20196;-65
2024/01/22 00:50:44;;;;;;;10.43;6.38;;;5.90;99.90;;;;;;5098744;28;20204;-64
2024/01/22 00:53:11;;;;;;;7.97;6.18;;;5.90;99.90;;;;;;5098676;28;20306;-64
2024/01/22 00:55:38;;;;;;;7.65;5.75;;;5.90;99.90;;;;;;5097798;28;20684;-64
2024/01/22 00:58:05;;;;;;;8.80;6.45;;;5.90;99.90;;;;;;5097034;28;20678;-65
2024/01/22 01:00:33;;;;;;;6.47;5.40;;;5.90;99.90;;;;;;5097386;28;20633;-65
2024/01/22 01:03:00;;;;;;;6.93;5.95;;;6.00;99.90;;;;;;5097210;28;20252;-64
2024/01/22 01:05:26;;;;;;;9.25;6.07;;;6.00;99.90;;;;;;5097424;28;20224;-64
2024/01/22 01:07:53;;;;;;;12.63;6.25;;;6.00;99.90;;;;;;5098030;28;20197;-65
2024/01/22 01:10:20;;;;;;;7.88;6.32;;;6.10;99.90;;;;;;5098985;28;20204;-63
2024/01/22 01:12:47;;;;;;;10.20;6.30;;;6.10;99.90;;;;;;5097690;28;20224;-64
2024/01/22 01:15:13;;;;;;;6.60;4.85;;;6.10;99.90;;;;;;5098324;28;20310;-64
2024/01/22 01:17:42;;;;;;;6.25;5.40;;;6.10;99.90;;;;;;5098806;28;20685;-64
2024/01/22 01:20:10;;;;;;;10.10;7.00;;;6.10;99.90;;;;;;5098574;28;20204;-64
2024/01/22 01:22:37;;;;;;;8.32;6.90;;;6.00;99.90;;;;;;5099519;28;20220;-65
2024/01/22 01:25:04;;;;;;;7.85;5.60;;;6.00;99.90;;;;;;5098390;28;20209;-63
2024/01/22 01:27:31;;;;;;;7.93;5.70;;;6.00;99.90;;;;;;5100743;28;20206;-64
2024/01/22 01:29:57;;;;;;;10.40;6.65;;;6.00;99.90;;;;;;5100016;28;20658;-63
2024/01/22 01:32:26;;;;;;;11.73;5.78;;;6.00;99.90;;;;;;5099312;28;20247;-64
2024/01/22 01:34:54;;;;;;;6.80;5.32;;;6.00;99.90;;;;;;5097545;28;20683;-64
2024/01/22 01:37:20;;;;;;;7.20;5.65;;;6.00;99.90;;;;;;5097532;28;20220;-64
2024/01/22 01:39:47;;;;;;;5.10;4.60;;;6.10;99.90;;;;;;5096525;28;20204;-62
2024/01/22 01:42:14;;;;;;;7.40;5.57;;;6.10;99.90;;;;;;5096815;28;20323;-64
2024/01/22 01:44:49;;;;;;;9.38;4.97;;;6.10;99.90;;;;;;5096832;28;20211;-64
2024/01/22 01:47:17;;;;;;;9.20;6.10;;;6.10;99.90;;;;;;5097190;28;20188;-64
2024/01/22 01:49:45;;;;;;;9.35;5.32;;;6.10;99.90;;;;;;5097235;28;20203;-63
2024/01/22 01:52:14;;;;;;;6.03;4.55;;;6.10;99.90;;;;;;5097393;28;20220;-64
2024/01/22 01:54:43;;;;;;;5.90;4.22;;;6.10;99.90;;;;;;5096793;28;20291;-64
2024/01/22 01:57:11;;;;;;;8.07;4.97;;;6.10;99.90;;;;;;5096904;28;20200;-63
2024/01/22 01:59:39;;;;;;;7.75;4.65;;;6.10;99.90;;;;;;5096390;28;20588;-64
2024/01/22 02:02:06;;;;;;;6.78;4.85;;;6.10;99.90;;;;;;5096118;28;20231;-63
2024/01/22 02:04:33;;;;;;;5.18;4.78;;;6.20;99.90;;;;;;5095928;28;20200;-63
2024/01/22 02:07:00;;;;;;;7.57;4.85;;;6.20;99.90;;;;;;5095902;28;20201;-64
2024/01/22 02:09:47;;;;;;;5.57;4.55;;;6.20;99.90;;;;;;5096177;28;20200;-63
2024/01/22 02:12:14;;;;;;;4.90;4.07;;;6.20;99.90;;;;;;5096742;28;20273;-64
2024/01/22 02:14:41;;;;;;;5.00;3.90;;;6.30;99.90;;;;;;5096341;28;20211;-64
2024/01/22 02:17:07;;;;;;;7.22;4.80;;;6.30;99.90;;;;;;5096071;28;20201;-63
2024/01/22 02:19:34;;;;;;;8.55;5.18;;;6.40;99.90;;;;;;5095240;28;20223;-63
2024/01/22 02:22:01;;;;;;;4.90;3.70;;;6.40;99.90;;;;;;5094979;28;20571;-64
2024/01/22 02:24:29;;;;;;;5.25;4.40;;;6.40;99.90;;;;;;5095391;28;20684;-64
2024/01/22 02:26:56;;;;;;;5.43;3.53;;;6.50;99.90;;;;;;5096024;28;20204;-64
2024/01/22 02:29:22;;;;;;;4.57;3.67;;;6.50;99.90;;;;;;5095799;28;20198;-64
2024/01/22 02:31:50;;;;;;;7.47;4.47;;;6.50;99.90;;;;;;5095952;28;20208;-63
2024/01/22 02:34:17;;;;;;;8.05;4.55;;;6.60;99.90;;;;;;5095328;28;20191;-64
2024/01/22 02:36:45;;;;;;;8.27;3.95;;;6.60;99.90;;;;;;5095210;28;20204;-64
2024/01/22 02:39:12;;;;;;;5.68;3.80;;;6.70;99.90;;;;;;5094950;28;20659;-64
2024/01/22 02:41:40;;;;;;;5.47;4.03;;;6.70;99.90;;;;;;5094788;28;20200;-63
2024/01/22 02:44:06;;;;;;;5.30;3.85;;;6.70;99.90;;;;;;5094827;28;20204;-63
2024/01/22 02:46:33;;;;;;;6.18;4.50;;;6.80;99.90;;;;;;5095363;28;20208;-64
2024/01/22 02:49:00;;;;;;;5.10;3.50;;;6.80;99.90;;;;;;5095894;28;20206;-65
2024/01/22 02:51:27;;;;;;;5.72;3.78;;;6.80;99.90;;;;;;5093927;28;20291;-63
2024/01/22 02:53:54;;;;;;;5.05;3.63;;;6.90;99.90;;;;;;5094809;28;20220;-64
2024/01/22 02:56:21;;;;;;;5.43;3.45;;;6.90;99.90;;;;;;5094653;28;20197;-64
2024/01/22 02:58:49;;;;;;;7.82;4.05;;;6.90;99.90;;;;;;5094487;28;20220;-63
2024/01/22 03:01:16;;;;;;;6.90;3.88;;;6.90;99.90;;;;;;5094688;28;20286;-65
2024/01/22 03:03:43;;;;;;;6.00;3.83;;;7.00;99.90;;;;;;5094534;28;20728;-64
2024/01/22 03:06:10;;;;;;;8.02;4.40;;;7.00;99.90;;;;;;5110862;28;20210;-64
2024/01/22 03:08:36;;;;;;;9.20;3.80;;;7.00;99.90;;;;;;5109462;28;20197;-64
2024/01/22 03:11:04;;;;;;;4.93;3.88;;;7.10;99.90;;;;;;5098544;28;20196;-65
2024/01/22 03:13:31;;;;;;;8.48;4.15;;;7.10;99.90;;;;;;5095496;28;20251;-65
2024/01/22 03:15:59;;;;;;;6.03;3.50;;;7.10;99.90;;;;;;5095548;28;20228;-64
2024/01/22 03:18:26;;;;;;;4.88;3.40;;;7.10;99.90;;;;;;5095041;28;20220;-68
2024/01/22 03:20:52;;;;;;;4.30;3.20;;;7.20;99.90;;;;;;5094858;28;20200;-64
2024/01/22 03:23:19;;;;;;;6.53;3.60;;;7.20;99.90;;;;;;5094711;28;20224;-65
2024/01/22 03:25:46;;;;;;;6.93;3.65;;;7.20;99.90;;;;;;5094846;28;20200;-64
2024/01/22 03:28:13;;;;;;;3.60;2.95;;;7.20;99.90;;;;;;5095123;28;20208;-64
2024/01/22 03:30:39;;;;;;;4.90;2.90;;;7.20;99.90;;;;;;5095217;28;20238;-64
2024/01/22 03:33:08;;;;;;;4.05;3.40;;;7.20;99.90;;;;;;5108431;22;20239;-61
2024/01/22 03:35:34;;;;;;;5.30;3.70;;;7.20;99.90;;;;;;5094252;28;20200;-62
2024/01/22 03:38:01;;;;;;;4.50;3.53;;;7.20;99.90;;;;;;5094515;28;20627;-62
2024/01/22 03:40:28;;;;;;;8.80;3.78;;;7.20;99.90;;;;;;5094776;28;20204;-62
2024/01/22 03:42:55;;;;;;;3.75;2.92;;;7.20;99.90;;;;;;5095007;28;20224;-62
2024/01/22 03:45:21;;;;;;;3.50;3.05;;;7.30;99.90;;;;;;5093519;28;20196;-63
2024/01/22 03:47:48;;;;;;;4.15;2.92;;;7.30;99.90;;;;;;5093557;28;20200;-63
2024/01/22 03:50:16;;;;;;;7.15;3.63;;;7.30;99.90;;;;;;5093354;28;20196;-63
2024/01/22 03:52:43;;;;;;;3.72;2.65;;;7.30;99.90;;;;;;5092854;28;20608;-62
2024/01/22 03:55:10;;;;;;;5.15;3.50;;;7.40;99.90;;;;;;5093284;28;20211;-62
2024/01/22 03:57:37;;;;;;;5.25;3.05;;;7.40;99.90;;;;;;5093119;28;20200;-63
2024/01/22 04:00:04;;;;;;;3.20;2.90;;;7.40;99.90;;;;;;5092938;28;20223;-63
2024/01/22 04:02:33;;;;;;;5.93;3.50;;;7.50;99.90;;;;;;5092282;28;20721;-62
2024/01/22 04:05:00;;;;;;;5.13;2.80;;;7.50;99.90;;;;;;5093934;28;20199;-61
2024/01/22 04:07:28;;;;;;;4.35;3.10;;;7.50;99.90;;;;;;5093399;28;20200;-63
2024/01/22 04:13:01;;;;;;;6.20;3.28;;;7.50;99.90;;;;;;5091114;28;20612;-63
2024/01/22 04:15:28;;;;;;;3.50;2.90;;;7.50;99.90;;;;;;5090397;28;20283;-63
2024/01/22 04:17:55;;;;;;;5.57;3.10;;;7.50;99.90;;;;;;5091512;28;20204;-64
2024/01/22 04:20:22;;;;;;;3.80;3.00;;;7.50;99.90;;;;;;5090442;28;20222;-62
2024/01/22 04:22:51;;;;;;;6.72;3.15;;;7.50;99.90;;;;;;5090100;28;20733;-64
2024/01/22 04:25:18;;;;;;;9.98;3.47;;;7.50;99.90;;;;;;5090371;28;20200;-64
2024/01/22 04:27:45;;;;;;;2.75;2.40;;;7.50;99.90;;;;;;5091209;28;20207;-64
2024/01/22 04:30:14;;;;;;;6.78;3.30;;;7.60;99.90;;;;;;5090353;28;20533;-64
2024/01/22 04:32:40;;;;;;;4.97;3.00;;;7.60;99.90;;;;;;5089930;28;20220;-63
2024/01/22 04:35:07;;;;;;;3.47;2.95;;;7.60;99.90;;;;;;5090127;28;20196;-64
2024/01/22 04:37:34;;;;;;;6.35;2.75;;;7.60;99.90;;;;;;5091239;28;20273;-63
2024/01/22 04:40:09;;;;;;;3.20;2.75;;;7.60;99.90;;;;;;5089961;28;20615;-64
2024/01/22 04:42:36;;;;;;;3.67;2.60;;;7.60;99.90;;;;;;5090265;28;20215;-64
2024/01/22 04:45:03;;;;;;;3.45;2.92;;;7.70;99.90;;;;;;5089999;28;20690;-63
2024/01/22 04:47:31;;;;;;;4.78;2.30;;;7.70;99.90;;;;;;5090716;28;20204;-63
2024/01/22 04:49:58;;;;;;;3.00;2.55;;;7.70;99.90;;;;;;5090417;28;20204;-63
2024/01/22 04:52:25;;;;;;;5.72;3.13;;;7.70;99.90;;;;;;5090456;28;20231;-63
2024/01/22 04:54:51;;;;;;;4.15;2.90;;;7.80;99.90;;;;;;5091580;28;20243;-63
2024/01/22 04:57:18;;;;;;;3.78;2.58;;;7.80;99.90;;;;;;5091863;28;20212;-64
2024/01/22 04:59:45;;;;;;;2.70;2.17;;;7.80;99.90;;;;;;5091152;28;20196;-63
2024/01/22 05:02:11;;;;;;;3.55;2.00;;;7.80;99.90;;;;;;5092819;28;20193;-64
2024/01/22 05:04:39;;;;;;;3.58;2.60;;;7.80;99.90;;;;;;5096831;28;20686;-64
2024/01/22 05:07:06;;;;;;;4.25;3.25;;;7.80;99.90;;;;;;5097277;28;20208;-64
2024/01/22 05:09:33;;;;;;;5.82;2.25;;;7.80;99.90;;;;;;5096054;28;20211;-63
2024/01/22 05:12:00;;;;;;;2.15;2.05;;;7.80;99.90;;;;;;5091719;28;20221;-64
2024/01/22 05:14:27;;;;;;;3.50;2.38;;;7.90;99.90;;;;;;5090075;28;20221;-63
2024/01/22 05:16:53;;;;;;;2.50;2.25;;;7.90;99.90;;;;;;5089858;28;20208;-63
2024/01/22 05:19:20;;;;;;;3.22;2.72;;;7.90;99.90;;;;;;5090326;28;20207;-64
2024/01/22 05:21:48;;;;;;;2.80;2.10;;;8.00;99.90;;;;;;5089507;28;20193;-65
2024/01/22 05:24:15;;;;;;;3.50;2.38;;;8.00;99.90;;;;;;5076482;28;20228;-64
2024/01/22 05:26:41;;;;;;;2.95;2.13;;;8.00;99.90;;;;;;5076619;28;20197;-64
2024/01/22 05:29:08;;;;;;;3.58;2.13;;;8.00;99.90;;;;;;5075725;28;20205;-64
2024/01/22 05:31:35;;;;;;;2.90;2.00;;;8.00;99.90;;;;;;5075720;28;20213;-64
2024/01/22 05:34:02;;;;;;;3.55;2.33;;;8.00;99.90;;;;;;5075881;28;20228;-64
2024/01/22 05:36:29;;;;;;;4.60;2.33;;;8.00;99.90;;;;;;5075417;28;20201;-64
2024/01/22 05:38:57;;;;;;;3.53;2.70;;;7.90;99.90;;;;;;5075605;28;20201;-64
2024/01/22 05:41:23;;;;;;;2.85;2.05;;;7.80;99.90;;;;;;5075651;28;20683;-64
2024/01/22 05:43:50;;;;;;;7.32;3.13;;;7.60;99.90;;;;;;5075370;28;20229;-64
2024/01/22 05:46:17;;;;;;;4.10;2.97;;;7.50;99.90;;;;;;5075594;28;20205;-64
2024/01/22 05:48:44;;;;;;;7.32;2.70;;;7.40;99.90;;;;;;5075264;28;20211;-64
2024/01/22 05:51:11;;;;;;;4.03;2.55;;;7.30;99.90;;;;;;5075277;28;20228;-64
2024/01/22 05:53:40;;;;;;;7.28;2.88;;;7.20;99.90;;;;;;5075495;28;20221;-65
2024/01/22 05:56:08;;;;;;;6.60;2.97;;;7.20;99.90;;;;;;5076920;28;20201;-64
2024/01/22 05:58:35;;;;;;;4.93;2.72;;;7.10;99.90;;;;;;5079334;28;20223;-65
2024/01/22 06:01:01;;;;;;;4.18;2.40;;;7.10;99.90;;;;;;5075547;28;20696;-64
2024/01/22 06:03:28;;;;;;;5.47;2.40;;;7.00;99.90;;;;;;5075001;28;20225;-64
2024/01/22 06:05:55;;;;;;;5.82;2.58;;;7.10;99.90;;;;;;5075263;28;20295;-65
2024/01/22 06:08:21;;;;;;;3.85;3.00;;;7.10;99.90;;;;;;5075430;28;20201;-64
2024/01/22 06:10:50;;;;;;;3.80;2.80;;;7.00;99.90;;;;;;5076260;28;20205;-64
2024/01/22 06:13:18;;;;;;;5.85;2.35;;;7.00;99.90;;;;;;5074871;28;20260;-64
2024/01/22 06:15:45;;;;;;;3.83;2.25;;;7.00;99.90;;;;;;5074906;28;20205;-64
2024/01/22 06:18:12;;;;;;;3.78;2.40;;;7.00;99.90;;;;;;5075036;28;20204;-65
2024/01/22 06:20:38;;;;;;;2.47;2.28;;;7.00;99.90;;;;;;5076087;28;20208;-64
2024/01/22 06:23:05;;;;;;;8.38;2.75;;;7.00;99.90;;;;;;5076740;28;20237;-64
2024/01/22 06:25:32;;;;;;;4.07;2.50;;;7.10;99.90;;;;;;5077213;28;20201;-64
2024/01/22 06:27:59;;;;;;;4.03;2.70;;;7.10;99.90;;;;;;5076561;28;20212;-64
2024/01/22 06:30:27;;;;;;;6.85;2.65;;;7.20;99.90;;;;;;5078166;28;20632;-65
2024/01/22 06:32:54;;;;;;;2.75;2.13;;;7.20;99.90;;;;;;5082460;28;20233;-64
2024/01/22 06:35:20;;;;;;;4.35;2.65;;;7.20;99.90;;;;;;5076566;28;20212;-64
2024/01/22 06:37:47;;;;;;;2.97;2.40;;;7.20;99.90;;;;;;5080820;28;20200;-64
2024/01/22 06:40:16;;;;;;;6.13;2.70;;;7.30;99.90;;;;;;5082107;28;20215;-64
2024/01/22 06:42:42;;;;;;;4.13;2.85;;;7.30;99.90;;;;;;5075432;28;20216;-64
2024/01/22 06:45:09;;;;;;;4.43;2.65;;;7.30;99.90;;;;;;5074881;28;20208;-65
2024/01/22 06:47:37;;;;;;;4.32;2.70;;;7.30;99.90;;;;;;5074917;28;20682;-65
2024/01/22 06:50:05;;;;;;;4.28;3.42;;;7.30;99.90;;;;;;5075400;28;20212;-65
2024/01/22 06:52:32;;;;;;;2.80;2.22;;;7.30;99.90;;;;;;5075340;28;20235;-65
2024/01/22 06:54:58;;;;;;;3.67;2.25;;;7.30;99.90;;;;;;5074494;28;20298;-64
2024/01/22 06:57:25;;;;;;;3.80;2.60;;;7.30;99.90;;;;;;5077770;28;20211;-68
2024/01/22 06:59:52;;;;;;;10.60;3.47;;;7.30;99.90;;;;;;5073856;28;20216;-63
2024/01/22 07:02:19;;;;;;;4.18;2.70;;;7.40;99.90;;;;;;5074154;28;20197;-65
2024/01/22 07:04:47;;;;;;;2.15;2.03;;;7.40;99.90;;;;;;5074557;28;20254;-65
2024/01/22 07:07:14;;;;;;;4.07;2.60;;;7.40;99.90;;;;;;5073675;28;20698;-64
2024/01/22 07:09:41;;;;;;;3.42;2.13;;;7.40;99.90;;;;;;5074253;28;20211;-64
2024/01/22 07:12:08;;;;;;;2.60;1.92;;;7.40;99.90;;;;;;5074023;28;20224;-64
2024/01/22 07:14:35;;;;;;;4.18;2.30;;;7.50;99.90;;;;;;5073861;28;20205;-64
2024/01/22 07:17:03;;;;;;;3.67;1.92;;;7.50;99.90;;;;;;5074192;28;20220;-65
2024/01/22 07:19:29;;;;;;;2.42;2.22;;;7.60;99.90;;;;;;5073774;28;20201;-65
2024/01/22 07:21:58;;;;;;;2.00;1.60;;;7.60;99.90;;;;;;5073611;28;20220;-65
2024/01/22 07:24:24;;;;;;;3.30;2.10;;;7.60;99.90;;;;;;5073541;28;20606;-64
2024/01/22 07:26:51;;;;;;;2.15;1.55;;;7.70;99.90;;;;;;5073961;28;20662;-64
2024/01/22 07:29:18;;;;;;;2.10;1.85;;;7.80;99.90;;;;;;5074110;28;20208;-64
2024/01/22 07:31:44;;;;;;;3.90;2.08;;;7.80;99.90;;;;;;5073911;28;20207;-65
2024/01/22 07:34:11;;;;;;;2.90;2.35;;;7.90;99.90;;;;;;5073892;28;20233;-64
2024/01/22 07:36:38;;;;;;;4.30;2.25;;;7.90;99.90;;;;;;5073907;28;20315;-65
2024/01/22 07:39:07;;;;;;;2.17;1.73;;;8.00;99.90;;;;;;5073706;28;20220;-65
2024/01/22 07:41:34;;;;;;;2.78;2.05;;;8.00;99.90;;;;;;5073631;28;20659;-65
2024/01/22 07:44:01;;;;;;;2.00;1.60;;;8.00;99.90;;;;;;5073946;28;20228;-65
2024/01/22 07:46:28;;;;;;;2.50;1.80;;;8.00;99.90;;;;;;5074144;28;20201;-65
2024/01/22 07:48:55;;;;;;;3.28;1.98;;;8.00;99.90;;;;;;5073055;28;20724;-65
2024/01/22 07:51:22;;;;;;;1.83;1.70;;;8.00;99.90;;;;;;5073192;28;20201;-64
2024/01/22 07:53:49;;;;;;;1.98;1.52;;;8.00;99.90;;;;;;5073192;28;20225;-64
2024/01/22 07:56:17;;;;;;;2.92;1.75;;;8.10;99.90;;;;;;5073561;28;20205;-65
2024/01/22 07:58:44;;;;;;;2.38;2.17;;;8.10;99.90;;;;;;5073295;28;20205;-65
2024/01/22 08:01:10;;;;;;;1.63;1.52;;;8.10;99.90;;;;;;5073690;28;20197;-65
2024/01/22 08:03:38;;;;;;;1.52;1.42;;;8.10;99.90;;;;;;5073937;28;20581;-64
2024/01/22 08:06:05;;;;;;;2.10;1.63;;;8.10;99.90;;;;;;5074501;28;20207;-64
2024/01/22 08:08:32;;;;;;;2.42;1.63;;;8.20;99.90;;;;;;5073736;28;20203;-64
2024/01/22 08:10:59;;;;;;;1.70;1.60;;;8.20;99.90;;;;;;5073261;28;20678;-66
2024/01/22 08:13:27;;;;;;;2.10;1.70;;;8.20;99.90;;;;;;5073547;28;20602;-65
2024/01/22 08:15:54;;;;;;;2.25;1.35;;;8.20;99.90;;;;;;5075909;28;20230;-64
2024/01/22 08:18:21;;;;;;;1.98;1.23;;;8.30;99.90;;;;;;5075975;28;20565;-64
2024/01/22 08:20:47;;;;;;;1.33;1.23;;;8.30;99.90;;;;;;5076099;28;20209;-64
2024/01/22 08:23:14;;;;;;;2.15;1.38;;;8.40;99.90;;;;;;5074862;28;20224;-64
2024/01/22 08:25:41;;;;;;;3.63;1.85;;;8.40;99.90;;;;;;5075930;28;20223;-64
2024/01/22 08:28:08;;;;;;;1.70;1.50;;;8.30;99.90;;;;;;5074099;28;20209;-64
2024/01/22 08:30:36;;;;;;;3.35;1.77;;;8.30;99.90;;;;;;5074194;28;20220;-64
2024/01/22 08:33:03;;;;;;;2.15;1.90;;;8.30;99.90;;;;;;5077906;28;20224;-65
2024/01/22 08:35:29;;;;;;;4.32;1.70;;;8.30;99.90;;;;;;5077672;28;20212;-65
2024/01/22 08:37:56;;;;;;;1.70;1.40;;;8.30;99.90;;;;;;5078728;28;20663;-64
2024/01/22 08:40:24;;;;;;;1.27;1.17;;;8.30;99.90;;;;;;5076432;28;20197;-62
2024/01/22 08:42:51;;;;;;;1.70;1.35;;;8.40;99.90;;;;;;5073237;28;20223;-64
2024/01/22 08:45:18;;;;;;;1.30;1.20;;;8.40;99.90;;;;;;5072686;28;20211;-64
2024/01/22 08:47:47;;;;;;;3.75;1.75;;;8.40;99.90;;;;;;5073000;28;20209;-65
2024/01/22 08:50:17;;;;;;;2.08;1.90;;;8.30;99.90;;;;;;5073105;28;20706;-66
2024/01/22 08:52:45;;;;;;;2.75;1.50;;;8.30;99.90;;;;;;5073197;28;20448;-65
2024/01/22 08:55:12;;;;;;;3.53;1.50;;;8.30;99.90;;;;;;5072453;28;20693;-65
2024/01/22 08:57:39;;;;;;;2.30;1.20;;;8.30;99.90;;;;;;5073266;28;20209;-65
2024/01/22 09:00:10;;;;;;;1.60;1.40;;;8.40;99.90;;;;;;5077055;28;20231;-64
2024/01/22 09:02:37;;;;;;;2.10;1.38;;;8.40;99.90;;;;;;5077331;28;20259;-64
2024/01/22 09:05:06;;;;;;;1.30;1.20;;;8.50;99.90;;;;;;5077109;28;20287;-64
2024/01/22 09:07:33;;;;;;;2.53;1.60;;;8.50;99.90;;;;;;5076736;28;20575;-65
2024/01/22 09:10:00;;;;;;;1.75;1.50;;;8.60;99.90;;;;;;5077049;28;20205;-64
2024/01/22 09:12:27;;;;;;;1.10;1.00;;;8.70;99.90;;;;;;5076099;28;20229;-64
2024/01/22 09:14:54;;;;;;;3.90;1.38;;;8.70;99.90;;;;;;5076214;28;20201;-65
2024/01/22 09:17:20;;;;;;;1.13;1.02;;;8.70;99.90;;;;;;5076482;28;20197;-64
2024/01/22 09:19:47;;;;;;;1.63;1.38;;;8.70;99.90;;;;;;5076530;28;20201;-65
2024/01/22 09:22:15;;;;;;;1.27;1.17;;;8.70;99.90;;;;;;5076165;28;20721;-64
2024/01/22 09:24:42;;;;;;;1.67;0.80;;;8.70;99.90;;;;;;5076279;28;20685;-64
2024/01/22 09:27:09;;;;;;;1.83;1.00;;;8.70;99.90;;;;;;5076481;28;20206;-64
2024/01/22 09:29:36;;;;;;;1.20;1.10;;;8.80;99.90;;;;;;5076393;28;20204;-65
2024/01/22 09:32:03;;;;;;;3.00;0.80;;;8.80;99.90;;;;;;5076894;28;20227;-64
2024/01/22 09:34:30;;;;;;;3.60;1.20;;;8.80;99.90;;;;;;5076478;28;20561;-64
2024/01/22 09:36:56;;;;;;;1.95;1.52;;;8.80;99.90;;;;;;5076724;28;20242;-64
2024/01/22 09:39:24;;;;;;;3.30;1.10;;;8.80;99.90;;;;;;5081427;28;20201;-66
2024/01/22 09:41:52;;;;;;;4.17;1.47;;;8.80;99.90;;;;;;5086594;28;20201;-64
2024/01/22 09:44:20;;;;;;;1.33;1.10;;;8.90;99.90;;;;;;5083742;28;20470;-65
2024/01/22 09:46:49;;;;;;;2.58;1.42;;;9.00;99.90;;;;;;5077212;28;20208;-63
2024/01/22 09:49:15;;;;;;;1.77;1.17;;;9.00;99.90;;;;;;5076556;28;20249;-65
2024/01/22 09:51:44;;;;;;;2.23;1.30;;;9.10;99.90;;;;;;5076436;28;20478;-64
2024/01/22 09:54:13;;;;;;;1.10;1.00;;;9.10;99.90;;;;;;5076227;28;20510;-64
2024/01/22 09:56:41;;;;;;;2.17;1.10;;;9.20;99.90;;;;;;5075891;28;20205;-65
2024/01/22 09:59:17;;;;;;;1.70;1.40;;;9.30;99.90;;;;;;5076250;28;20952;-64
2024/01/22 10:01:44;;;;;;;2.17;1.40;;;9.40;99.90;;;;;;5075815;28;20535;-64
2024/01/22 10:04:14;;;;;;;6.57;1.20;;;9.50;99.90;;;;;;5076586;28;20463;-65
2024/01/22 10:06:41;;;;;;;2.07;1.70;;;9.60;99.90;;;;;;5076086;28;20450;-64
2024/01/22 10:09:08;;;;;;;1.93;1.47;;;9.70;99.90;;;;;;5075556;28;20446;-63
2024/01/22 10:11:36;;;;;;;1.10;1.00;;;9.90;99.90;;;;;;5074903;28;20957;-63
2024/01/22 10:14:04;;;;;;;1.20;1.03;;;10.00;99.90;;;;;;5075126;28;21021;-64
2024/01/22 10:16:32;;;;;;;1.90;1.03;;;10.10;99.90;;;;;;5076378;28;20454;-64
2024/01/22 10:19:00;;;;;;;2.50;1.67;;;10.30;99.90;;;;;;5075846;28;20461;-63
2024/01/22 10:21:27;;;;;;;1.20;0.97;;;10.40;99.90;;;;;;5075496;28;20439;-63
2024/01/22 10:23:58;;;;;;;1.40;1.17;;;10.50;99.90;;;;;;5075877;28;20462;-64
2024/01/22 10:26:24;;;;;;;0.90;0.80;;;10.60;99.90;;;;;;5076049;28;20443;-65
2024/01/22 10:28:51;;;;;;;1.87;1.00;;;10.80;99.90;;;;;;5075434;28;20451;-65
2024/01/22 10:31:20;;;;;;;2.07;0.90;;;10.90;99.90;;;;;;5075496;28;20454;-63
2024/01/22 10:33:48;;;;;;;2.50;0.97;;;11.00;99.90;;;;;;5075514;28;20487;-63
2024/01/22 10:36:17;;;;;;;4.20;1.23;;;11.20;99.90;;;;;;5076691;28;20450;-66
2024/01/22 10:38:45;;;;;;;2.13;1.30;;;11.30;99.90;;;;;;5075693;28;20865;-64
2024/01/22 10:41:18;;;;;;;2.10;1.27;;;11.40;99.90;;;;;;5076399;28;20444;-63
2024/01/22 10:43:45;;;;;;;3.63;1.10;;;11.40;99.90;;;;;;5076184;28;20464;-65
2024/01/22 10:46:13;;;;;;;1.40;1.00;;;11.40;99.90;;;;;;5077480;28;20962;-62
2024/01/22 10:48:42;;;;;;;1.60;1.07;;;11.50;99.90;;;;;;5079862;28;20810;-64
2024/01/22 10:51:09;;;;;;;4.97;1.63;;;11.50;99.90;;;;;;5080296;28;20435;-64
2024/01/22 10:53:37;;;;;;;2.57;1.50;;;11.50;99.90;;;;;;5080905;28;20482;-62
2024/01/22 10:56:10;;;;;;;2.10;1.57;;;11.50;99.90;;;;;;5080961;28;20443;-65
2024/01/22 10:58:42;;;;;;;1.33;1.23;;;11.50;99.90;;;;;;5080844;28;20947;-65
2024/01/22 11:01:13;;;;;;;4.50;1.10;;;11.50;99.90;;;;;;5079623;28;20427;-63
2024/01/22 11:03:48;;;;;;;1.87;1.10;;;11.50;99.90;;;;;;5078110;28;20459;-64
2024/01/22 11:06:18;;;;;;;2.07;1.10;;;11.50;99.90;;;;;;5074792;28;20428;-64
2024/01/22 11:08:49;;;;;;;2.57;1.17;;;11.40;99.90;;;;;;5075625;28;20443;-65
2024/01/22 11:11:19;;;;;;;3.43;1.40;;;11.30;99.90;;;;;;5075131;28;20451;-64
2024/01/22 11:13:49;;;;;;;1.37;0.80;;;11.30;99.90;;;;;;5075514;28;20483;-64
2024/01/22 11:16:16;;;;;;;1.07;0.90;;;11.30;99.90;;;;;;5075746;28;20522;-64
2024/01/22 11:18:58;;;;;;;2.20;1.47;;;11.30;99.90;;;;;;5073712;28;20518;-64
2024/01/22 11:21:31;;;;;;;2.57;1.20;;;11.40;99.90;;;;;;5073434;28;20428;-63
2024/01/22 11:24:13;;;;;;;1.53;1.00;;;11.40;99.90;;;;;;5073461;28;20467;-64
2024/01/22 11:26:44;;;;;;;1.67;1.10;;;11.50;99.90;;;;;;5075750;28;20426;-64
2024/01/22 11:29:13;;;;;;;1.93;1.30;;;11.50;99.90;;;;;;5073749;28;20439;-63
2024/01/22 11:31:40;;;;;;;1.33;1.20;;;11.50;99.90;;;;;;5075210;28;20542;-64
2024/01/22 11:34:09;;;;;;;1.67;1.20;;;11.50;99.90;;;;;;5075102;28;20483;-63
2024/01/22 11:36:53;;;;;;;1.87;1.43;;;11.50;99.90;;;;;;5075578;28;20458;-64
2024/01/22 11:39:42;;;;;;;3.00;1.57;;;11.50;99.90;;;;;;5075016;28;20971;-64
2024/01/22 11:42:28;;;;;;;1.27;1.17;;;11.50;99.90;;;;;;5075099;28;20428;-63
2024/01/22 11:44:56;;;;;;;1.70;1.10;;;11.40;99.90;;;;;;5073674;28;20450;-64
2024/01/22 11:47:24;;;;;;;2.70;1.80;;;11.30;99.90;;;;;;5074441;28;20438;-64
2024/01/22 11:50:00;;;;;;;2.07;1.40;;;11.20;99.90;;;;;;5073153;28;20439;-64
2024/01/22 11:52:26;;;;;;;3.30;1.30;;;11.20;99.90;;;;;;5073982;28;20447;-62
2024/01/22 11:54:55;;;;;;;1.93;1.37;;;11.10;99.90;;;;;;5073972;28;20482;-64
2024/01/22 11:57:22;;;;;;;4.20;1.47;;;11.10;99.90;;;;;;5073912;28;20497;-64
2024/01/22 11:59:59;;;;;;;3.57;1.17;;;11.10;99.90;;;;;;5073523;28;20526;-64
2024/01/22 12:02:26;;;;;;;1.80;1.07;;;11.10;99.90;;;;;;5073623;28;20462;-63
2024/01/22 12:05:02;;;;;;;1.30;1.10;;;11.00;99.90;;;;;;5073435;28;20436;-64
2024/01/22 12:07:33;;;;;;;2.60;1.57;;;11.10;99.90;;;;;;5073560;28;20423;-64
2024/01/22 12:10:00;;;;;;;2.67;1.60;;;11.10;99.90;;;;;;5074000;28;20817;-64
2024/01/22 12:12:27;;;;;;;1.87;1.53;;;11.20;99.90;;;;;;5073704;28;20520;-63
2024/01/22 12:14:58;;;;;;;2.40;1.20;;;11.20;99.90;;;;;;5073490;28;20478;-64
2024/01/22 12:17:25;;;;;;;2.73;1.50;;;11.30;99.90;;;;;;5073691;28;20446;-65
2024/01/22 12:19:54;;;;;;;2.07;0.90;;;11.30;99.90;;;;;;5073642;28;20959;-61
2024/01/22 12:22:24;;;;;;;4.97;1.40;;;11.30;99.90;;;;;;5073096;28;20443;-64
2024/01/22 12:25:07;;;;;;;3.77;1.43;;;11.20;99.90;;;;;;5073742;28;20432;-64
2024/01/22 12:27:36;;;;;;;3.27;1.67;;;11.20;99.90;;;;;;5074299;28;20481;-64
2024/01/22 12:30:04;;;;;;;2.60;1.70;;;11.10;99.90;;;;;;5073664;28;20447;-65
2024/01/22 12:32:32;;;;;;;4.37;1.60;;;11.00;99.90;;;;;;5073772;28;20474;-65
2024/01/22 12:34:59;;;;;;;6.13;1.37;;;11.00;99.90;;;;;;5078175;28;20489;-65
2024/01/22 12:37:30;;;;;;;5.10;1.57;;;11.00;99.90;;;;;;5078339;28;20821;-63
2024/01/22 12:40:09;;;;;;;4.50;1.90;;;10.90;99.90;;;;;;5078826;28;20454;-63
2024/01/22 12:42:36;;;;;;;5.00;1.90;;;10.90;99.90;;;;;;5078900;28;20466;-65
2024/01/22 12:45:03;;;;;;;3.10;1.50;;;10.80;99.90;;;;;;5079208;28;20450;-66
2024/01/22 12:47:30;;;;;;;3.80;1.37;;;10.80;99.90;;;;;;5086548;28;20443;-64
2024/01/22 12:49:57;;;;;;;5.27;1.80;;;10.80;99.90;;;;;;5087342;28;20916;-65
2024/01/22 12:52:24;;;;;;;1.77;1.47;;;10.70;99.90;;;;;;5087224;28;20451;-64
2024/01/22 12:54:52;;;;;;;3.77;1.97;;;10.60;99.90;;;;;;5086117;28;20839;-64
2024/01/22 12:57:19;;;;;;;2.47;1.30;;;10.50;99.90;;;;;;5085928;28;20443;-64
2024/01/22 12:59:47;;;;;;;2.93;2.07;;;10.40;99.90;;;;;;5085178;28;20803;-65
2024/01/22 13:02:14;;;;;;;7.07;2.80;;;10.30;99.90;;;;;;5086957;28;20439;-65